Terminal Aerodrome Forecast
Issued by NWS

Current Version | Previous Version | Graphics & Text | Print | Product List | Glossary On
Versions: 1 2 3 4 5 6 7 8 9 10 11 12 13 14 15 16 17 18 19 20 21 22 23 24 25 26 27 28 29 30 31 32 33 34 35 36 37 38 39 40 41 42 43 44 45 46 47 48 49
000
FTUS41 KRNK 241720
TAFLWB
TAF
KLWB 241720Z 2418/2518 VRB05KT 6SM -RADZ OVC070 WS020/20035KT
     FM242100 10003KT P6SM -SHRA BKN070 WS020/20040KT
     FM242300 23012KT 6SM -SHRA SCT008 OVC040
      TEMPO 2423/2502 4SM -SHRA OVC025
     FM250300 28008KT P6SM OVC030
     FM251000 29010G22KT P6SM -SHRASN OVC018=

USA.gov is the U.S. government's official web portal to all federal, state and local government web resources and services.